Pagrindinis puslapis
METAR-TAF:

METAR-TAF

Oro uostai :

Kerrville Municipal Airport (Louis Schreiner Field)

Kerrville, Teksasas, Jungtinės Amerikos Valstijos

platuma: 29-58N, ilguma: 099-05W, Aukštis: 493 m

Dabartinis oras

Ataskaita buvo paskelbta 8 minutes, ne 10:55 UTC
Vėjas 4 kt iš Šiaurės/Šiaurės Vakarų
Temperatūra 17°C
Drėgmė 88%
Slėgis 1019 hPa
Matomumas: 16.1 km
Giedras dangus

METAR: KERV 291055Z AUTO 33004KT 10SM CLR 17/15 A3010 RMK AO2 T01650152

Laikas: 06:03 (11:03 UTC)


TAF: trūkstamas

Orai ataskaitas ir orų prognozės (METAR, TAF).

turimą stotys yra geltonos ir raudonos taškus žemėlapyje.

Perkelti pele per norėdami pamatyti stoties vardą.

Tada spustelėkite, norėdami matyti oro stebėjimo ir prognozės.

Norėdami pakeisti žemėlapį: spustelėkite ant žalios mygtukų su juodo kryžiaus žemyn,; žalią mygtuką su brūkšneliu, jei norite nutolinti; arba žalių rodyklių gretimoms žemėlapius.


METAR-TAF: